sensor_id;sensor_type;location;lat;lon;timestamp;pressure;altitude;pressure_sealevel;temperature;humidity
71716;BME280;59568;52.128;5.434;2023-03-16T00:02:03;101938.84;;;3.04;78.74
71716;BME280;59568;52.128;5.434;2023-03-16T00:04:30;101943.56;;;3.07;78.98
71716;BME280;59568;52.128;5.434;2023-03-16T00:06:57;101945.16;;;3.08;79.28
71716;BME280;59568;52.128;5.434;2023-03-16T00:09:24;101938.59;;;3.12;79.19
71716;BME280;59568;52.128;5.434;2023-03-16T00:11:58;101937.38;;;3.15;79.27
71716;BME280;59568;52.128;5.434;2023-03-16T00:14:25;101934.59;;;3.16;79.32
71716;BME280;59568;52.128;5.434;2023-03-16T00:16:51;101936.97;;;3.18;79.42
71716;BME280;59568;52.128;5.434;2023-03-16T00:19:18;101926.19;;;3.21;79.37
71716;BME280;59568;52.128;5.434;2023-03-16T00:21:49;101923.63;;;3.21;79.13
71716;BME280;59568;52.128;5.434;2023-03-16T00:24:18;101923.41;;;3.23;79.26
71716;BME280;59568;52.128;5.434;2023-03-16T00:26:46;101921.63;;;3.23;79.44
71716;BME280;59568;52.128;5.434;2023-03-16T00:29:13;101913.88;;;3.23;79.73
71716;BME280;59568;52.128;5.434;2023-03-16T00:31:41;101919.81;;;3.24;79.61
71716;BME280;59568;52.128;5.434;2023-03-16T00:34:10;101914.44;;;3.25;79.47
71716;BME280;59568;52.128;5.434;2023-03-16T00:36:37;101903.34;;;3.25;79.69
71716;BME280;59568;52.128;5.434;2023-03-16T00:39:05;101907.91;;;3.23;80.13
71716;BME280;59568;52.128;5.434;2023-03-16T00:41:32;101895.59;;;3.25;80.23
71716;BME280;59568;52.128;5.434;2023-03-16T00:44:06;101897.16;;;3.26;80.05
71716;BME280;59568;52.128;5.434;2023-03-16T00:46:34;101889.41;;;3.26;80.05
71716;BME280;59568;52.128;5.434;2023-03-16T00:49:01;101898.75;;;3.27;80.49
71716;BME280;59568;52.128;5.434;2023-03-16T00:51:28;101896.16;;;3.27;80.23
71716;BME280;59568;52.128;5.434;2023-03-16T00:53:55;101895.16;;;3.28;80.39
71716;BME280;59568;52.128;5.434;2023-03-16T00:56:22;101896.75;;;3.29;80.31
71716;BME280;59568;52.128;5.434;2023-03-16T00:58:48;101886.41;;;3.29;80.50
71716;BME280;59568;52.128;5.434;2023-03-16T01:01:17;101887.00;;;3.31;80.58
71716;BME280;59568;52.128;5.434;2023-03-16T01:03:45;101875.63;;;3.32;80.66
71716;BME280;59568;52.128;5.434;2023-03-16T01:06:16;101878.81;;;3.34;80.79
71716;BME280;59568;52.128;5.434;2023-03-16T01:08:43;101868.47;;;3.34;80.92
71716;BME280;59568;52.128;5.434;2023-03-16T01:11:15;101864.13;;;3.34;81.51
71716;BME280;59568;52.128;5.434;2023-03-16T01:13:44;101855.16;;;3.37;81.44
71716;BME280;59568;52.128;5.434;2023-03-16T01:16:13;101859.28;;;3.38;81.25
71716;BME280;59568;52.128;5.434;2023-03-16T01:18:41;101852.56;;;3.37;81.48
71716;BME280;59568;52.128;5.434;2023-03-16T01:21:08;101855.72;;;3.39;81.63
71716;BME280;59568;52.128;5.434;2023-03-16T01:23:36;101850.56;;;3.39;81.91
71716;BME280;59568;52.128;5.434;2023-03-16T01:26:03;101852.94;;;3.40;81.67
71716;BME280;59568;52.128;5.434;2023-03-16T01:28:31;101854.72;;;3.40;81.51
71716;BME280;59568;52.128;5.434;2023-03-16T01:31:01;101847.56;;;3.42;81.64
71716;BME280;59568;52.128;5.434;2023-03-16T01:33:29;101845.75;;;3.43;81.85
71716;BME280;59568;52.128;5.434;2023-03-16T01:36:07;101844.97;;;3.42;82.30
71716;BME280;59568;52.128;5.434;2023-03-16T01:38:34;101837.22;;;3.42;82.33
71716;BME280;59568;52.128;5.434;2023-03-16T01:41:04;101829.47;;;3.42;82.34
71716;BME280;59568;52.128;5.434;2023-03-16T01:43:32;101822.50;;;3.43;82.64
71716;BME280;59568;52.128;5.434;2023-03-16T01:51:32;101816.31;;;3.44;82.70
71716;BME280;59568;52.128;5.434;2023-03-16T01:59:37;101801.41;;;3.46;82.46
71716;BME280;59568;52.128;5.434;2023-03-16T02:02:07;101803.78;;;3.47;82.43
71716;BME280;59568;52.128;5.434;2023-03-16T02:04:38;101798.59;;;3.47;82.61
71716;BME280;59568;52.128;5.434;2023-03-16T02:07:09;101801.41;;;3.46;82.83
71716;BME280;59568;52.128;5.434;2023-03-16T02:09:38;101799.06;;;3.44;82.85
71716;BME280;59568;52.128;5.434;2023-03-16T02:12:08;101793.88;;;3.44;82.70
71716;BME280;59568;52.128;5.434;2023-03-16T02:14:46;101795.25;;;3.47;82.72
71716;BME280;59568;52.128;5.434;2023-03-16T02:17:15;101787.50;;;3.47;82.93
71716;BME280;59568;52.128;5.434;2023-03-16T02:20:05;101776.13;;;3.48;82.98
71716;BME280;59568;52.128;5.434;2023-03-16T02:22:42;101787.84;;;3.50;83.07
71716;BME280;59568;52.128;5.434;2023-03-16T02:25:11;101778.09;;;3.52;83.39
71716;BME280;59568;52.128;5.434;2023-03-16T02:30:29;101777.44;;;3.57;83.48
71716;BME280;59568;52.128;5.434;2023-03-16T02:32:57;101770.47;;;3.57;83.76
71716;BME280;59568;52.128;5.434;2023-03-16T02:35:24;101768.47;;;3.59;83.85
71716;BME280;59568;52.128;5.434;2023-03-16T02:37:51;101768.25;;;3.61;83.49
71716;BME280;59568;52.128;5.434;2023-03-16T02:40:23;101776.38;;;3.65;83.62
71716;BME280;59568;52.128;5.434;2023-03-16T02:43:11;101768.63;;;3.65;83.86
71716;BME280;59568;52.128;5.434;2023-03-16T02:45:51;101767.59;;;3.66;83.79
71716;BME280;59568;52.128;5.434;2023-03-16T02:48:22;101774.38;;;3.67;84.11
71716;BME280;59568;52.128;5.434;2023-03-16T02:50:54;101776.13;;;3.66;84.25
71716;BME280;59568;52.128;5.434;2023-03-16T02:53:21;101778.72;;;3.66;84.34
71716;BME280;59568;52.128;5.434;2023-03-16T02:55:48;101780.31;;;3.67;84.71
71716;BME280;59568;52.128;5.434;2023-03-16T02:58:15;101781.09;;;3.68;85.06
71716;BME280;59568;52.128;5.434;2023-03-16T03:00:42;101786.25;;;3.68;84.79
71716;BME280;59568;52.128;5.434;2023-03-16T03:03:11;101786.25;;;3.68;84.88
71716;BME280;59568;52.128;5.434;2023-03-16T03:05:37;101781.09;;;3.68;84.90
71716;BME280;59568;52.128;5.434;2023-03-16T03:08:05;101773.56;;;3.66;84.90
71716;BME280;59568;52.128;5.434;2023-03-16T03:10:32;101769.97;;;3.67;85.62
71716;BME280;59568;52.128;5.434;2023-03-16T03:12:59;101764.22;;;3.65;85.49
71716;BME280;59568;52.128;5.434;2023-03-16T03:15:26;101758.84;;;3.67;85.47
71716;BME280;59568;52.128;5.434;2023-03-16T03:17:52;101762.22;;;3.67;85.17
71716;BME280;59568;52.128;5.434;2023-03-16T03:20:19;101763.00;;;3.68;85.66
71716;BME280;59568;52.128;5.434;2023-03-16T03:22:48;101765.59;;;3.68;85.63
71716;BME280;59568;52.128;5.434;2023-03-16T03:25:16;101764.03;;;3.67;85.81
71716;BME280;59568;52.128;5.434;2023-03-16T03:27:45;101757.84;;;3.68;85.92
71716;BME280;59568;52.128;5.434;2023-03-16T03:30:15;101754.47;;;3.67;85.90
71716;BME280;59568;52.128;5.434;2023-03-16T03:32:42;101753.69;;;3.67;86.20
71716;BME280;59568;52.128;5.434;2023-03-16T03:35:11;101754.69;;;3.66;86.00
71716;BME280;59568;52.128;5.434;2023-03-16T03:37:39;101746.13;;;3.65;86.10
71716;BME280;59568;52.128;5.434;2023-03-16T03:40:08;101743.56;;;3.65;86.25
71716;BME280;59568;52.128;5.434;2023-03-16T03:42:36;101734.22;;;3.64;86.27
71716;BME280;59568;52.128;5.434;2023-03-16T03:45:04;101733.44;;;3.64;86.50
71716;BME280;59568;52.128;5.434;2023-03-16T03:47:39;101726.69;;;3.63;86.86
71716;BME280;59568;52.128;5.434;2023-03-16T03:50:08;101726.91;;;3.61;87.03
71716;BME280;59568;52.128;5.434;2023-03-16T03:52:35;101715.22;;;3.58;87.10
71716;BME280;59568;52.128;5.434;2023-03-16T03:55:02;101716.00;;;3.59;87.22
71716;BME280;59568;52.128;5.434;2023-03-16T03:57:29;101718.00;;;3.57;87.05
71716;BME280;59568;52.128;5.434;2023-03-16T03:59:56;101711.25;;;3.56;87.24
71716;BME280;59568;52.128;5.434;2023-03-16T04:02:22;101711.69;;;3.53;87.57
71716;BME280;59568;52.128;5.434;2023-03-16T04:04:49;101711.69;;;3.53;87.55
71716;BME280;59568;52.128;5.434;2023-03-16T04:07:16;101712.91;;;3.50;87.52
71716;BME280;59568;52.128;5.434;2023-03-16T04:09:43;101721.66;;;3.49;87.73
71716;BME280;59568;52.128;5.434;2023-03-16T04:12:10;101716.94;;;3.46;87.80
71716;BME280;59568;52.128;5.434;2023-03-16T04:14:37;101698.03;;;3.46;87.84
71716;BME280;59568;52.128;5.434;2023-03-16T04:17:03;101692.31;;;3.44;88.09
71716;BME280;59568;52.128;5.434;2023-03-16T04:19:30;101698.69;;;3.41;88.35
71716;BME280;59568;52.128;5.434;2023-03-16T04:21:57;101696.31;;;3.39;88.37
71716;BME280;59568;52.128;5.434;2023-03-16T04:24:27;101689.81;;;3.37;88.77
71716;BME280;59568;52.128;5.434;2023-03-16T04:26:53;101695.19;;;3.35;89.38
71716;BME280;59568;52.128;5.434;2023-03-16T04:29:20;101690.00;;;3.35;89.03
71716;BME280;59568;52.128;5.434;2023-03-16T04:31:47;101686.06;;;3.33;89.03
71716;BME280;59568;52.128;5.434;2023-03-16T04:34:14;101691.25;;;3.33;89.50
71716;BME280;59568;52.128;5.434;2023-03-16T04:36:41;101697.63;;;3.30;89.44
71716;BME280;59568;52.128;5.434;2023-03-16T04:39:08;101689.06;;;3.30;89.24
71716;BME280;59568;52.128;5.434;2023-03-16T04:41:36;101701.00;;;3.31;89.42
71716;BME280;59568;52.128;5.434;2023-03-16T04:44:07;101689.06;;;3.30;89.16
71716;BME280;59568;52.128;5.434;2023-03-16T04:46:33;101702.81;;;3.30;89.55
71716;BME280;59568;52.128;5.434;2023-03-16T04:49:01;101692.22;;;3.32;89.73
71716;BME280;59568;52.128;5.434;2023-03-16T04:51:28;101699.56;;;3.35;89.85
71716;BME280;59568;52.128;5.434;2023-03-16T04:53:55;101694.19;;;3.36;89.88
71716;BME280;59568;52.128;5.434;2023-03-16T04:56:22;101688.78;;;3.38;89.92
71716;BME280;59568;52.128;5.434;2023-03-16T04:58:49;101681.59;;;3.40;89.93
71716;BME280;59568;52.128;5.434;2023-03-16T05:01:16;101695.13;;;3.42;89.96
71716;BME280;59568;52.128;5.434;2023-03-16T05:03:46;101694.09;;;3.43;89.99
71716;BME280;59568;52.128;5.434;2023-03-16T05:06:12;101691.53;;;3.43;89.86
71716;BME280;59568;52.128;5.434;2023-03-16T05:08:40;101695.47;;;3.46;89.85
71716;BME280;59568;52.128;5.434;2023-03-16T05:11:07;101699.44;;;3.48;89.98
71716;BME280;59568;52.128;5.434;2023-03-16T05:13:33;101697.41;;;3.50;90.01
71716;BME280;59568;52.128;5.434;2023-03-16T05:16:00;101684.50;;;3.50;89.89
71716;BME280;59568;52.128;5.434;2023-03-16T05:18:27;101680.69;;;3.53;89.96
71716;BME280;59568;52.128;5.434;2023-03-16T05:20:55;101685.63;;;3.54;89.89
71716;BME280;59568;52.128;5.434;2023-03-16T05:23:22;101686.22;;;3.56;89.62
71716;BME280;59568;52.128;5.434;2023-03-16T05:25:49;101681.25;;;3.55;89.52
71716;BME280;59568;52.128;5.434;2023-03-16T05:28:16;101677.44;;;3.57;89.69
71716;BME280;59568;52.128;5.434;2023-03-16T05:30:43;101684.19;;;3.58;89.81
71716;BME280;59568;52.128;5.434;2023-03-16T05:33:11;101682.19;;;3.60;89.65
71716;BME280;59568;52.128;5.434;2023-03-16T05:35:38;101683.19;;;3.59;89.69
71716;BME280;59568;52.128;5.434;2023-03-16T05:38:04;101674.66;;;3.59;89.66
71716;BME280;59568;52.128;5.434;2023-03-16T05:40:31;101682.19;;;3.60;89.97
71716;BME280;59568;52.128;5.434;2023-03-16T05:42:58;101680.38;;;3.61;89.96
71716;BME280;59568;52.128;5.434;2023-03-16T05:45:26;101673.41;;;3.62;90.26
71716;BME280;59568;52.128;5.434;2023-03-16T05:47:53;101679.34;;;3.62;90.10
71716;BME280;59568;52.128;5.434;2023-03-16T05:50:20;101672.63;;;3.61;90.23
71716;BME280;59568;52.128;5.434;2023-03-16T05:52:47;101668.25;;;3.62;90.15
71716;BME280;59568;52.128;5.434;2023-03-16T05:55:17;101664.66;;;3.63;90.40
71716;BME280;59568;52.128;5.434;2023-03-16T05:57:44;101659.50;;;3.63;90.21
71716;BME280;59568;52.128;5.434;2023-03-16T06:00:12;101652.31;;;3.65;90.70
71716;BME280;59568;52.128;5.434;2023-03-16T06:02:47;101660.84;;;3.65;90.70
71716;BME280;59568;52.128;5.434;2023-03-16T06:05:15;101660.84;;;3.65;90.61
71716;BME280;59568;52.128;5.434;2023-03-16T06:07:42;101656.47;;;3.66;90.91
71716;BME280;59568;52.128;5.434;2023-03-16T06:10:10;101658.63;;;3.69;90.67
71716;BME280;59568;52.128;5.434;2023-03-16T06:12:37;101661.00;;;3.70;90.89
71716;BME280;59568;52.128;5.434;2023-03-16T06:15:07;101662.56;;;3.71;90.58
71716;BME280;59568;52.128;5.434;2023-03-16T06:17:35;101657.38;;;3.71;90.68
71716;BME280;59568;52.128;5.434;2023-03-16T06:20:03;101657.97;;;3.73;90.48
71716;BME280;59568;52.128;5.434;2023-03-16T06:22:40;101654.13;;;3.76;90.73
71716;BME280;59568;52.128;5.434;2023-03-16T06:25:09;101646.94;;;3.78;90.92
71716;BME280;59568;52.128;5.434;2023-03-16T06:27:36;101640.56;;;3.80;90.91
71716;BME280;59568;52.128;5.434;2023-03-16T06:30:04;101644.50;;;3.83;91.02
71716;BME280;59568;52.128;5.434;2023-03-16T06:32:31;101647.66;;;3.85;90.78
71716;BME280;59568;52.128;5.434;2023-03-16T06:34:58;101648.44;;;3.86;91.03
71716;BME280;59568;52.128;5.434;2023-03-16T06:37:28;101639.25;;;3.90;90.80
71716;BME280;59568;52.128;5.434;2023-03-16T06:39:54;101640.59;;;3.92;90.83
71716;BME280;59568;52.128;5.434;2023-03-16T06:42:21;101638.34;;;3.96;91.19
71716;BME280;59568;52.128;5.434;2023-03-16T06:44:49;101629.16;;;4.00;91.05
71716;BME280;59568;52.128;5.434;2023-03-16T06:47:16;101630.06;;;4.06;90.96
71716;BME280;59568;52.128;5.434;2023-03-16T06:49:43;101626.25;;;4.08;91.28
71716;BME280;59568;52.128;5.434;2023-03-16T06:52:10;101625.03;;;4.11;91.13
71716;BME280;59568;52.128;5.434;2023-03-16T06:54:40;101624.56;;;4.14;91.46
71716;BME280;59568;52.128;5.434;2023-03-16T06:57:07;101626.25;;;4.20;91.66
71716;BME280;59568;52.128;5.434;2023-03-16T06:59:34;101624.59;;;4.26;91.94
71716;BME280;59568;52.128;5.434;2023-03-16T07:02:01;101619.31;;;4.32;92.05
71716;BME280;59568;52.128;5.434;2023-03-16T07:04:27;101624.94;;;4.41;91.90
71716;BME280;59568;52.128;5.434;2023-03-16T07:06:54;101618.75;;;4.54;91.95
71716;BME280;59568;52.128;5.434;2023-03-16T07:09:23;101618.97;;;4.64;91.58
71716;BME280;59568;52.128;5.434;2023-03-16T07:11:50;101616.50;;;4.69;91.39
71716;BME280;59568;52.128;5.434;2023-03-16T07:14:18;101609.88;;;4.73;91.07
71716;BME280;59568;52.128;5.434;2023-03-16T07:16:45;101612.69;;;4.72;90.42
71716;BME280;59568;52.128;5.434;2023-03-16T07:19:12;101609.31;;;4.71;90.18
71716;BME280;59568;52.128;5.434;2023-03-16T07:21:38;101612.69;;;4.72;90.45
71716;BME280;59568;52.128;5.434;2023-03-16T07:24:08;101616.84;;;4.73;90.32
71716;BME280;59568;52.128;5.434;2023-03-16T07:26:35;101620.44;;;4.72;90.10
71716;BME280;59568;52.128;5.434;2023-03-16T07:29:03;101611.09;;;4.71;90.04
71716;BME280;59568;52.128;5.434;2023-03-16T07:31:33;101617.63;;;4.73;89.95
71716;BME280;59568;52.128;5.434;2023-03-16T07:34:01;101608.06;;;4.74;90.15
71716;BME280;59568;52.128;5.434;2023-03-16T07:36:28;101607.28;;;4.73;89.52
71716;BME280;59568;52.128;5.434;2023-03-16T07:38:55;101609.88;;;4.73;89.98
71716;BME280;59568;52.128;5.434;2023-03-16T07:41:22;101615.06;;;4.73;90.28
71716;BME280;59568;52.128;5.434;2023-03-16T07:43:50;101615.50;;;4.70;90.01
71716;BME280;59568;52.128;5.434;2023-03-16T07:46:18;101612.13;;;4.70;89.64
71716;BME280;59568;52.128;5.434;2023-03-16T07:48:45;101612.91;;;4.70;89.63
71716;BME280;59568;52.128;5.434;2023-03-16T07:51:12;101609.19;;;4.66;89.52
71716;BME280;59568;52.128;5.434;2023-03-16T07:53:39;101616.72;;;4.68;90.02
71716;BME280;59568;52.128;5.434;2023-03-16T07:56:07;101610.53;;;4.69;89.83
71716;BME280;59568;52.128;5.434;2023-03-16T07:58:34;101608.84;;;4.74;89.72
71716;BME280;59568;52.128;5.434;2023-03-16T08:01:00;101620.31;;;4.78;89.80
71716;BME280;59568;52.128;5.434;2023-03-16T08:03:28;101625.06;;;4.82;89.51
71716;BME280;59568;52.128;5.434;2023-03-16T08:05:54;101625.16;;;4.87;89.68
71716;BME280;59568;52.128;5.434;2023-03-16T08:08:22;101622.69;;;4.92;89.68
71716;BME280;59568;52.128;5.434;2023-03-16T08:10:49;101619.72;;;5.00;90.09
71716;BME280;59568;52.128;5.434;2023-03-16T08:13:19;101611.16;;;5.11;89.86
71716;BME280;59568;52.128;5.434;2023-03-16T08:15:51;101602.09;;;5.26;90.23
71716;BME280;59568;52.128;5.434;2023-03-16T08:18:28;101595.25;;;5.48;90.40
71716;BME280;59568;52.128;5.434;2023-03-16T08:20:56;101593.50;;;5.66;89.91
71716;BME280;59568;52.128;5.434;2023-03-16T08:23:23;101593.84;;;5.86;89.64
71716;BME280;59568;52.128;5.434;2023-03-16T08:25:55;101601.41;;;6.05;89.68
71716;BME280;59568;52.128;5.434;2023-03-16T08:28:23;101587.59;;;6.16;88.58
71716;BME280;59568;52.128;5.434;2023-03-16T08:30:52;101579.00;;;6.15;87.96
71716;BME280;59568;52.128;5.434;2023-03-16T08:33:19;101587.09;;;6.19;87.05
71716;BME280;59568;52.128;5.434;2023-03-16T08:35:48;101583.63;;;6.13;87.04
71716;BME280;59568;52.128;5.434;2023-03-16T08:38:16;101593.56;;;6.16;86.44
71716;BME280;59568;52.128;5.434;2023-03-16T08:40:45;101597.81;;;6.23;86.33
71716;BME280;59568;52.128;5.434;2023-03-16T08:43:15;101600.16;;;6.24;86.55
71716;BME280;59568;52.128;5.434;2023-03-16T08:45:46;101588.97;;;6.24;86.00
71716;BME280;59568;52.128;5.434;2023-03-16T08:48:14;101584.59;;;6.24;85.62
71716;BME280;59568;52.128;5.434;2023-03-16T08:50:41;101592.66;;;6.28;85.13
71716;BME280;59568;52.128;5.434;2023-03-16T08:53:10;101600.53;;;6.33;84.94
71716;BME280;59568;52.128;5.434;2023-03-16T08:55:38;101587.88;;;6.36;85.15
71716;BME280;59568;52.128;5.434;2023-03-16T08:58:08;101596.53;;;6.42;85.31
71716;BME280;59568;52.128;5.434;2023-03-16T09:00:35;101588.03;;;6.47;85.29
71716;BME280;59568;52.128;5.434;2023-03-16T09:03:02;101597.69;;;6.51;84.73
71716;BME280;59568;52.128;5.434;2023-03-16T09:05:29;101598.78;;;6.55;84.35
71716;BME280;59568;52.128;5.434;2023-03-16T09:07:57;101595.47;;;6.60;83.63
71716;BME280;59568;52.128;5.434;2023-03-16T09:10:24;101587.50;;;6.67;83.69
71716;BME280;59568;52.128;5.434;2023-03-16T09:12:53;101586.25;;;6.69;83.70
71716;BME280;59568;52.128;5.434;2023-03-16T09:15:20;101584.97;;;6.72;83.43
71716;BME280;59568;52.128;5.434;2023-03-16T09:17:47;101587.88;;;6.75;83.35
71716;BME280;59568;52.128;5.434;2023-03-16T09:20:16;101587.41;;;6.78;83.19
71716;BME280;59568;52.128;5.434;2023-03-16T09:22:51;101586.31;;;6.74;82.38
71716;BME280;59568;52.128;5.434;2023-03-16T09:25:18;101586.72;;;6.66;82.07
71716;BME280;59568;52.128;5.434;2023-03-16T09:27:45;101588.25;;;6.62;82.04
71716;BME280;59568;52.128;5.434;2023-03-16T09:30:12;101585.66;;;6.62;81.99
71716;BME280;59568;52.128;5.434;2023-03-16T09:32:39;101585.66;;;6.62;82.28
71716;BME280;59568;52.128;5.434;2023-03-16T09:35:07;101585.66;;;6.62;82.39
71716;BME280;59568;52.128;5.434;2023-03-16T09:37:33;101587.19;;;6.63;82.26
71716;BME280;59568;52.128;5.434;2023-03-16T09:40:22;101577.31;;;6.60;82.19
71716;BME280;59568;52.128;5.434;2023-03-16T09:48:18;101576.16;;;6.73;81.79
71716;BME280;59568;52.128;5.434;2023-03-16T09:50:46;101568.50;;;6.83;82.14
71716;BME280;59568;52.128;5.434;2023-03-16T09:53:22;101569.94;;;6.96;81.79
71716;BME280;59568;52.128;5.434;2023-03-16T09:56:11;101567.03;;;7.14;81.52
71716;BME280;59568;52.128;5.434;2023-03-16T09:58:40;101568.50;;;7.32;81.54
71716;BME280;59568;52.128;5.434;2023-03-16T10:01:38;101566.06;;;7.48;80.83
71716;BME280;59568;52.128;5.434;2023-03-16T10:07:03;101558.09;;;7.92;79.91
71716;BME280;59568;52.128;5.434;2023-03-16T10:09:36;101547.84;;;8.17;78.74
71716;BME280;59568;52.128;5.434;2023-03-16T10:12:08;101546.38;;;8.32;78.39
71716;BME280;59568;52.128;5.434;2023-03-16T10:14:45;101548.88;;;8.59;78.20
71716;BME280;59568;52.128;5.434;2023-03-16T10:17:22;101535.22;;;9.05;76.99
71716;BME280;59568;52.128;5.434;2023-03-16T10:19:53;101534.22;;;9.21;76.07
71716;BME280;59568;52.128;5.434;2023-03-16T10:22:36;101546.75;;;9.45;75.51
71716;BME280;59568;52.128;5.434;2023-03-16T10:25:14;101537.38;;;9.64;74.56
71716;BME280;59568;52.128;5.434;2023-03-16T10:27:45;101544.16;;;9.75;74.77
71716;BME280;59568;52.128;5.434;2023-03-16T10:30:28;101543.88;;;9.97;73.93
71716;BME280;59568;52.128;5.434;2023-03-16T10:40:53;101525.28;;;10.25;71.24
71716;BME280;59568;52.128;5.434;2023-03-16T10:43:19;101523.44;;;10.35;70.75
71716;BME280;59568;52.128;5.434;2023-03-16T10:45:46;101517.16;;;10.42;70.78
71716;BME280;59568;52.128;5.434;2023-03-16T10:48:17;101518.94;;;10.51;70.67
71716;BME280;59568;52.128;5.434;2023-03-16T10:50:50;101521.25;;;10.63;69.96
71716;BME280;59568;52.128;5.434;2023-03-16T10:53:22;101517.56;;;10.64;69.54
71716;BME280;59568;52.128;5.434;2023-03-16T10:55:49;101508.50;;;10.56;68.75
71716;BME280;59568;52.128;5.434;2023-03-16T10:58:29;101509.53;;;10.55;69.44
71716;BME280;59568;52.128;5.434;2023-03-16T11:00:57;101506.09;;;10.60;69.13
71716;BME280;59568;52.128;5.434;2023-03-16T11:03:38;101504.00;;;10.62;68.82
71716;BME280;59568;52.128;5.434;2023-03-16T11:06:14;101496.66;;;10.64;68.85
71716;BME280;59568;52.128;5.434;2023-03-16T11:08:43;101498.22;;;10.70;69.10
71716;BME280;59568;52.128;5.434;2023-03-16T11:11:32;101504.97;;;10.76;68.24
71716;BME280;59568;52.128;5.434;2023-03-16T11:14:02;101483.09;;;10.62;67.07
71716;BME280;59568;52.128;5.434;2023-03-16T11:16:38;101490.66;;;10.64;67.98
71716;BME280;59568;52.128;5.434;2023-03-16T11:19:16;101496.09;;;10.72;67.50
71716;BME280;59568;52.128;5.434;2023-03-16T11:21:50;101497.16;;;10.71;67.08
71716;BME280;59568;52.128;5.434;2023-03-16T11:24:30;101479.38;;;10.73;67.31
71716;BME280;59568;52.128;5.434;2023-03-16T11:27:00;101481.25;;;10.68;66.39
71716;BME280;59568;52.128;5.434;2023-03-16T11:32:10;101463.69;;;10.73;66.05
71716;BME280;59568;52.128;5.434;2023-03-16T11:34:40;101451.91;;;10.76;66.52
71716;BME280;59568;52.128;5.434;2023-03-16T11:43:12;101443.22;;;10.91;65.28
71716;BME280;59568;52.128;5.434;2023-03-16T12:03:10;101435.75;;;11.67;64.33
71716;BME280;59568;52.128;5.434;2023-03-16T12:05:52;101434.81;;;11.82;64.81
71716;BME280;59568;52.128;5.434;2023-03-16T12:16:47;101426.09;;;12.15;61.71
71716;BME280;59568;52.128;5.434;2023-03-16T12:19:21;101421.50;;;12.26;61.38
71716;BME280;59568;52.128;5.434;2023-03-16T12:22:20;101418.38;;;12.62;61.97
71716;BME280;59568;52.128;5.434;2023-03-16T12:24:48;101415.41;;;13.02;60.93
71716;BME280;59568;52.128;5.434;2023-03-16T12:27:30;101405.44;;;13.17;60.63
71716;BME280;59568;52.128;5.434;2023-03-16T12:33:14;101399.50;;;13.31;59.27
71716;BME280;59568;52.128;5.434;2023-03-16T12:36:02;101396.69;;;13.41;58.31
71716;BME280;59568;52.128;5.434;2023-03-16T12:38:41;101385.31;;;13.59;57.83
71716;BME280;59568;52.128;5.434;2023-03-16T12:41:18;101386.56;;;13.62;57.11
71716;BME280;59568;52.128;5.434;2023-03-16T12:43:53;101391.13;;;13.84;57.91
71716;BME280;59568;52.128;5.434;2023-03-16T12:49:08;101370.91;;;13.71;57.27
71716;BME280;59568;52.128;5.434;2023-03-16T12:51:38;101376.19;;;13.71;56.94
71716;BME280;59568;52.128;5.434;2023-03-16T12:54:05;101366.16;;;13.59;55.76
71716;BME280;59568;52.128;5.434;2023-03-16T12:56:44;101356.81;;;13.53;56.70
71716;BME280;59568;52.128;5.434;2023-03-16T12:59:17;101361.31;;;13.66;56.75
71716;BME280;59568;52.128;5.434;2023-03-16T13:01:48;101350.47;;;13.68;55.74
71716;BME280;59568;52.128;5.434;2023-03-16T13:04:21;101337.63;;;13.80;55.89
71716;BME280;59568;52.128;5.434;2023-03-16T13:06:50;101327.91;;;13.94;56.11
71716;BME280;59568;52.128;5.434;2023-03-16T13:09:27;101323.59;;;13.98;55.64
71716;BME280;59568;52.128;5.434;2023-03-16T13:11:57;101335.66;;;13.99;55.80
71716;BME280;59568;52.128;5.434;2023-03-16T13:14:40;101314.28;;;13.92;55.48
71716;BME280;59568;52.128;5.434;2023-03-16T13:19:45;101313.22;;;14.16;55.24
71716;BME280;59568;52.128;5.434;2023-03-16T13:22:40;101313.94;;;14.30;54.49
71716;BME280;59568;52.128;5.434;2023-03-16T13:25:23;101318.41;;;14.30;54.14
71716;BME280;59568;52.128;5.434;2023-03-16T13:28:00;101311.91;;;14.27;53.85
71716;BME280;59568;52.128;5.434;2023-03-16T13:30:29;101306.19;;;14.25;52.81
71716;BME280;59568;52.128;5.434;2023-03-16T13:33:05;101310.78;;;14.19;52.76
71716;BME280;59568;52.128;5.434;2023-03-16T13:35:36;101305.00;;;14.31;54.28
71716;BME280;59568;52.128;5.434;2023-03-16T13:38:13;101300.06;;;14.38;53.56
71716;BME280;59568;52.128;5.434;2023-03-16T13:40:49;101296.63;;;14.52;53.31
71716;BME280;59568;52.128;5.434;2023-03-16T13:43:20;101293.13;;;14.43;52.54
71716;BME280;59568;52.128;5.434;2023-03-16T13:45:48;101285.44;;;14.24;52.72
71716;BME280;59568;52.128;5.434;2023-03-16T13:48:16;101281.19;;;14.36;53.42
71716;BME280;59568;52.128;5.434;2023-03-16T13:50:45;101271.81;;;14.44;52.52
71716;BME280;59568;52.128;5.434;2023-03-16T13:53:28;101278.44;;;14.42;51.91
71716;BME280;59568;52.128;5.434;2023-03-16T13:55:57;101271.16;;;14.38;51.52
71716;BME280;59568;52.128;5.434;2023-03-16T13:58:29;101271.16;;;14.38;52.01
71716;BME280;59568;52.128;5.434;2023-03-16T14:01:02;101266.97;;;14.37;49.94
71716;BME280;59568;52.128;5.434;2023-03-16T14:03:38;101276.06;;;14.31;51.66
71716;BME280;59568;52.128;5.434;2023-03-16T14:06:06;101269.91;;;14.36;50.97
71716;BME280;59568;52.128;5.434;2023-03-16T14:08:33;101270.09;;;14.39;51.77
71716;BME280;59568;52.128;5.434;2023-03-16T14:11:01;101271.56;;;14.54;52.30
71716;BME280;59568;52.128;5.434;2023-03-16T14:16:00;101269.19;;;14.44;50.17
71716;BME280;59568;52.128;5.434;2023-03-16T14:21:25;101259.38;;;14.58;51.73
71716;BME280;59568;52.128;5.434;2023-03-16T14:23:58;101255.09;;;14.40;49.49
71716;BME280;59568;52.128;5.434;2023-03-16T14:26:25;101251.50;;;14.36;49.65
71716;BME280;59568;52.128;5.434;2023-03-16T14:29:01;101247.50;;;14.38;51.02
71716;BME280;59568;52.128;5.434;2023-03-16T14:31:37;101244.47;;;14.45;51.57